createdAt,value
2023-02-03T00:01:27.503Z,1.85
2023-02-03T00:03:54.373Z,1.70
2023-02-03T00:06:21.765Z,2.00
2023-02-03T00:08:49.448Z,1.85
2023-02-03T00:11:16.280Z,1.92
2023-02-03T00:13:43.145Z,1.98
2023-02-03T00:16:10.055Z,1.73
2023-02-03T00:18:37.143Z,1.85
2023-02-03T00:21:03.985Z,1.60
2023-02-03T00:23:32.262Z,1.90
2023-02-03T00:26:07.534Z,1.92
2023-02-03T00:28:34.653Z,1.92
2023-02-03T00:31:01.677Z,2.03
2023-02-03T00:33:28.768Z,1.80
2023-02-03T00:36:14.521Z,1.60
2023-02-03T00:38:41.452Z,1.60
2023-02-03T00:41:08.282Z,2.00
2023-02-03T00:43:35.232Z,1.90
2023-02-03T00:46:02.166Z,1.80
2023-02-03T00:48:29.831Z,2.00
2023-02-03T00:50:57.071Z,1.90
2023-02-03T00:53:23.901Z,3.05
2023-02-03T00:56:12.913Z,1.80
2023-02-03T00:58:40.907Z,1.90
2023-02-03T01:01:08.084Z,1.98
2023-02-03T01:03:35.071Z,1.77
2023-02-03T01:06:18.802Z,1.55
2023-02-03T01:08:46.220Z,1.70
2023-02-03T01:11:17.367Z,1.48
2023-02-03T01:13:45.086Z,1.60
2023-02-03T01:16:15.126Z,1.35
2023-02-03T01:18:42.367Z,1.73
2023-02-03T01:21:12.058Z,1.83
2023-02-03T01:23:39.321Z,1.42
2023-02-03T01:26:08.781Z,2.08
2023-02-03T01:28:35.677Z,1.65
2023-02-03T01:31:35.097Z,1.50
2023-02-03T01:34:02.024Z,1.58
2023-02-03T01:36:31.088Z,1.40
2023-02-03T01:38:57.929Z,1.50
2023-02-03T01:41:28.971Z,1.67
2023-02-03T01:43:58.682Z,1.20
2023-02-03T01:46:37.240Z,1.33
2023-02-03T01:49:25.395Z,1.98
2023-02-03T01:51:53.654Z,1.50
2023-02-03T01:54:30.320Z,1.33
2023-02-03T01:57:02.094Z,1.48
2023-02-03T01:59:31.640Z,1.10
2023-02-03T02:02:00.919Z,1.65
2023-02-03T02:04:39.398Z,1.45
2023-02-03T02:07:32.390Z,1.55
2023-02-03T02:10:00.990Z,1.80
2023-02-03T02:12:28.440Z,1.50
2023-02-03T02:14:56.635Z,1.55
2023-02-03T02:18:04.330Z,1.70
2023-02-03T02:21:04.567Z,1.83
2023-02-03T02:23:48.891Z,1.45
2023-02-03T02:26:43.995Z,1.80
2023-02-03T02:29:40.408Z,1.52
2023-02-03T02:32:21.128Z,1.70
2023-02-03T02:35:04.528Z,2.00
2023-02-03T02:38:09.370Z,1.65
2023-02-03T02:41:03.602Z,1.40
2023-02-03T02:44:09.949Z,1.73
2023-02-03T02:46:55.267Z,1.40
2023-02-03T02:49:56.559Z,1.73
2023-02-03T02:52:41.833Z,1.60
2023-02-03T02:55:15.842Z,1.83
2023-02-03T02:57:44.943Z,1.60
2023-02-03T03:00:13.082Z,1.50
2023-02-03T03:02:46.029Z,1.70
2023-02-03T03:05:24.742Z,1.75
2023-02-03T03:08:00.083Z,1.48
2023-02-03T03:10:32.038Z,1.77
2023-02-03T03:13:06.910Z,2.08
2023-02-03T03:15:36.796Z,1.85
2023-02-03T03:18:45.511Z,2.00
2023-02-03T03:21:20.413Z,1.58
2023-02-03T03:24:03.575Z,1.70
2023-02-03T03:26:40.530Z,1.80
2023-02-03T03:29:21.819Z,1.60
2023-02-03T03:31:57.497Z,2.70
2023-02-03T03:34:41.720Z,1.80
2023-02-03T03:38:22.921Z,2.30
2023-02-03T03:44:07.385Z,2.10
2023-02-03T03:46:50.267Z,2.05
2023-02-03T03:49:21.810Z,1.73
2023-02-03T03:51:54.537Z,1.88
2023-02-03T03:54:26.031Z,1.90
2023-02-03T03:57:19.660Z,1.80
2023-02-03T03:59:49.968Z,1.88
2023-02-03T04:02:25.343Z,2.15
2023-02-03T04:04:54.556Z,1.65
2023-02-03T04:07:21.592Z,2.20
2023-02-03T04:09:48.991Z,1.80
2023-02-03T04:12:25.387Z,2.08
2023-02-03T04:14:52.895Z,2.65
2023-02-03T04:17:21.447Z,2.35
2023-02-03T04:19:49.421Z,2.10
2023-02-03T04:22:17.536Z,2.30
2023-02-03T04:24:44.498Z,2.35
2023-02-03T04:27:12.328Z,2.42
2023-02-03T04:29:39.454Z,2.25
2023-02-03T04:32:06.778Z,2.47
2023-02-03T04:34:33.914Z,2.63
2023-02-03T04:37:01.038Z,2.40
2023-02-03T04:39:29.797Z,2.50
2023-02-03T04:41:57.482Z,2.03
2023-02-03T04:44:25.914Z,2.35
2023-02-03T04:46:53.160Z,2.60
2023-02-03T04:49:23.024Z,2.25
2023-02-03T04:51:50.652Z,2.17
2023-02-03T04:54:17.692Z,3.10
2023-02-03T04:56:44.763Z,2.20
2023-02-03T04:59:16.952Z,2.70
2023-02-03T05:01:43.870Z,2.83
2023-02-03T05:04:11.164Z,2.83
2023-02-03T05:06:39.699Z,2.42
2023-02-03T05:09:08.314Z,3.35
2023-02-03T05:11:35.673Z,3.10
2023-02-03T05:14:04.996Z,3.20
2023-02-03T05:16:32.088Z,2.60
2023-02-03T05:19:02.828Z,2.72
2023-02-03T05:21:30.052Z,3.00
2023-02-03T05:23:57.213Z,2.75
2023-02-03T05:26:24.717Z,2.70
2023-02-03T05:28:53.270Z,3.20
2023-02-03T05:31:21.118Z,2.85
2023-02-03T05:33:49.660Z,2.95
2023-02-03T05:36:16.541Z,2.72
2023-02-03T05:38:43.698Z,3.65
2023-02-03T05:41:33.665Z,2.97
2023-02-03T05:44:02.064Z,3.17
2023-02-03T05:46:29.325Z,3.03
2023-02-03T05:48:58.725Z,3.03
2023-02-03T05:51:25.776Z,3.17
2023-02-03T05:53:54.233Z,3.00
2023-02-03T05:56:21.884Z,3.45
2023-02-03T05:58:48.970Z,3.15
2023-02-03T06:01:17.716Z,2.88
2023-02-03T06:03:49.493Z,3.17
2023-02-03T06:06:17.292Z,3.65
2023-02-03T06:08:44.839Z,2.90
2023-02-03T06:11:12.681Z,3.50
2023-02-03T06:13:40.072Z,5.30
2023-02-03T06:16:07.468Z,3.50
2023-02-03T06:18:36.507Z,4.05
2023-02-03T06:21:04.050Z,3.58
2023-02-03T06:23:31.398Z,4.10
2023-02-03T06:26:01.362Z,3.88
2023-02-03T06:28:28.579Z,3.63
2023-02-03T06:30:57.263Z,3.90
2023-02-03T06:33:38.083Z,4.35
2023-02-03T06:36:05.610Z,3.50
2023-02-03T06:38:37.048Z,3.72
2023-02-03T06:41:05.299Z,4.18
2023-02-03T06:43:37.917Z,5.05
2023-02-03T06:46:08.036Z,4.20
2023-02-03T06:48:36.958Z,3.35
2023-02-03T06:51:07.179Z,3.20
2023-02-03T06:53:35.088Z,2.90
2023-02-03T06:56:06.191Z,2.72
2023-02-03T06:58:33.388Z,3.22
2023-02-03T07:01:01.361Z,3.33
2023-02-03T07:03:28.356Z,3.00
2023-02-03T07:05:56.607Z,3.33
2023-02-03T07:08:24.105Z,2.90
2023-02-03T07:10:56.574Z,2.80
2023-02-03T07:13:25.079Z,3.05
2023-02-03T07:15:52.926Z,3.17
2023-02-03T07:18:46.300Z,3.42
2023-02-03T07:21:12.262Z,3.00
2023-02-03T07:23:41.849Z,3.10
2023-02-03T07:26:10.515Z,2.90
2023-02-03T07:28:56.186Z,3.42
2023-02-03T07:31:23.473Z,3.00
2023-02-03T07:33:50.793Z,3.03
2023-02-03T07:36:19.787Z,3.00
2023-02-03T07:38:46.955Z,2.42
2023-02-03T07:41:18.258Z,2.67
2023-02-03T07:43:48.502Z,3.05
2023-02-03T07:46:15.571Z,2.63
2023-02-03T07:48:42.519Z,2.42
2023-02-03T07:51:09.696Z,2.78
2023-02-03T07:53:36.764Z,3.33
2023-02-03T07:56:05.604Z,2.90
2023-02-03T07:58:33.486Z,2.50
2023-02-03T08:01:01.066Z,2.50
2023-02-03T08:03:29.124Z,2.92
2023-02-03T08:06:15.637Z,3.25
2023-02-03T08:08:44.135Z,2.53
2023-02-03T08:11:13.261Z,2.75
2023-02-03T08:13:40.552Z,3.13
2023-02-03T08:16:08.095Z,3.50
2023-02-03T08:18:35.343Z,3.17
2023-02-03T08:21:04.562Z,6.90
2023-02-03T08:23:32.076Z,4.35
2023-02-03T08:25:59.220Z,3.17
2023-02-03T08:28:26.615Z,3.47
2023-02-03T08:30:56.891Z,3.38
2023-02-03T08:33:25.031Z,4.53
2023-02-03T08:35:52.443Z,3.63
2023-02-03T08:38:19.626Z,4.13
2023-02-03T08:40:46.863Z,4.07
2023-02-03T08:43:16.088Z,4.30
2023-02-03T08:45:44.026Z,4.93
2023-02-03T08:48:12.312Z,5.55
2023-02-03T08:50:42.373Z,3.63
2023-02-03T08:53:09.774Z,3.20
2023-02-03T08:55:39.813Z,2.78
2023-02-03T08:58:06.967Z,4.82
2023-02-03T09:00:34.110Z,7.03
2023-02-03T09:03:02.176Z,3.60
2023-02-03T09:05:32.096Z,3.28
2023-02-03T09:07:59.314Z,3.83
2023-02-03T09:10:26.921Z,3.42
2023-02-03T09:12:54.563Z,3.03
2023-02-03T09:15:21.770Z,3.03
2023-02-03T09:17:50.445Z,3.03
2023-02-03T09:20:22.151Z,2.95
2023-02-03T09:22:49.336Z,3.03
2023-02-03T09:25:16.898Z,3.58
2023-02-03T09:27:44.150Z,3.70
2023-02-03T09:30:13.104Z,3.97
2023-02-03T09:32:40.079Z,4.60
2023-02-03T09:35:08.223Z,2.70
2023-02-03T09:37:36.542Z,2.70
2023-02-03T09:40:03.859Z,2.60
2023-02-03T09:42:51.954Z,2.03
2023-02-03T09:45:24.814Z,1.98
2023-02-03T09:47:56.566Z,2.50
2023-02-03T09:50:30.761Z,2.47
2023-02-03T09:52:59.582Z,2.20
2023-02-03T09:55:47.200Z,3.80
2023-02-03T09:58:21.467Z,5.07
2023-02-03T10:00:52.351Z,8.27
2023-02-03T10:03:22.519Z,3.80
2023-02-03T10:06:08.150Z,2.38
2023-02-03T10:09:05.408Z,2.00
2023-02-03T10:11:58.377Z,2.10
2023-02-03T10:14:37.517Z,2.10
2023-02-03T10:17:15.563Z,1.77
2023-02-03T10:19:51.976Z,1.83
2023-02-03T10:22:29.405Z,2.38
2023-02-03T10:25:17.956Z,2.05
2023-02-03T10:27:45.606Z,2.42
2023-02-03T10:30:34.980Z,2.58
2023-02-03T10:33:17.900Z,1.90
2023-02-03T10:36:12.328Z,2.22
2023-02-03T10:38:59.323Z,9.25
2023-02-03T10:43:58.550Z,2.08
2023-02-03T10:46:31.351Z,3.50
2023-02-03T10:48:59.041Z,2.30
2023-02-03T10:51:32.029Z,2.30
2023-02-03T10:54:00.595Z,1.92
2023-02-03T10:56:37.606Z,1.75
2023-02-03T10:59:07.870Z,1.80
2023-02-03T11:01:46.149Z,2.00
2023-02-03T11:04:28.591Z,2.45
2023-02-03T11:06:59.011Z,2.10
2023-02-03T11:09:36.364Z,2.10
2023-02-03T11:12:21.549Z,2.03
2023-02-03T11:14:54.228Z,2.00
2023-02-03T11:17:30.115Z,1.40
2023-02-03T11:20:13.870Z,2.20
2023-02-03T11:22:43.550Z,1.98
2023-02-03T11:25:21.075Z,2.80
2023-02-03T11:27:48.262Z,2.00
2023-02-03T11:30:28.060Z,1.98
2023-02-03T11:32:55.304Z,1.67
2023-02-03T11:35:25.331Z,1.70
2023-02-03T11:37:58.853Z,1.85
2023-02-03T11:40:34.621Z,3.80
2023-02-03T11:43:06.067Z,3.37
2023-02-03T11:45:45.515Z,2.85
2023-02-03T11:48:36.842Z,2.72
2023-02-03T11:51:37.450Z,2.10
2023-02-03T11:54:22.153Z,2.33
2023-02-03T11:57:08.045Z,2.92
2023-02-03T11:59:50.292Z,2.60
2023-02-03T12:02:43.545Z,2.28
2023-02-03T12:05:45.639Z,2.10
2023-02-03T12:08:24.565Z,2.45
2023-02-03T12:11:28.906Z,2.20
2023-02-03T12:14:12.174Z,2.22
2023-02-03T12:16:45.263Z,2.05
2023-02-03T12:19:51.852Z,2.20
2023-02-03T12:22:56.328Z,1.80
2023-02-03T12:25:29.066Z,2.28
2023-02-03T12:28:07.791Z,2.30
2023-02-03T12:30:38.899Z,2.78
2023-02-03T12:33:19.531Z,2.30
2023-02-03T12:35:57.084Z,2.63
2023-02-03T12:38:40.247Z,2.17
2023-02-03T12:41:36.260Z,2.60
2023-02-03T12:44:19.150Z,2.40
2023-02-03T12:46:53.999Z,2.70
2023-02-03T12:49:31.854Z,2.88
2023-02-03T12:52:47.217Z,3.50
2023-02-03T12:55:44.550Z,2.05
2023-02-03T12:58:20.580Z,2.03
2023-02-03T13:00:57.478Z,2.35
2023-02-03T13:03:49.488Z,2.08
2023-02-03T13:06:54.195Z,2.45
2023-02-03T13:10:00.224Z,2.88
2023-02-03T13:12:34.797Z,3.90
2023-02-03T13:15:33.769Z,10.10
2023-02-03T13:18:34.288Z,2.72
2023-02-03T13:21:02.794Z,3.45
2023-02-03T13:23:29.874Z,1.95
2023-02-03T13:26:19.402Z,2.20
2023-02-03T13:29:40.671Z,1.90
2023-02-03T13:32:35.550Z,1.98
2023-02-03T13:35:21.580Z,2.60
2023-02-03T13:38:10.283Z,3.97
2023-02-03T13:41:06.585Z,3.00
2023-02-03T13:44:00.141Z,3.90
2023-02-03T13:46:32.356Z,4.20
2023-02-03T13:49:11.009Z,4.72
2023-02-03T13:51:49.239Z,4.28
2023-02-03T13:54:35.164Z,4.00
2023-02-03T13:57:22.263Z,4.53
2023-02-03T14:02:20.241Z,4.32
2023-02-03T14:04:51.853Z,4.72
2023-02-03T14:07:41.884Z,4.07
2023-02-03T14:10:26.247Z,4.15
2023-02-03T14:12:55.332Z,4.15
2023-02-03T14:15:31.556Z,4.80
2023-02-03T14:18:44.126Z,6.45
2023-02-03T14:21:28.235Z,5.75
2023-02-03T14:24:02.581Z,6.93
2023-02-03T14:26:38.882Z,6.03
2023-02-03T14:29:07.015Z,7.80
2023-02-03T14:31:53.567Z,6.95
2023-02-03T14:34:32.059Z,7.30
2023-02-03T14:37:15.851Z,8.55
2023-02-03T14:40:21.358Z,9.40
2023-02-03T14:43:19.820Z,9.43
2023-02-03T14:46:14.579Z,8.60
2023-02-03T14:48:56.645Z,9.25
2023-02-03T14:51:32.610Z,10.95
2023-02-03T14:54:31.745Z,10.73
2023-02-03T14:57:19.920Z,10.82
2023-02-03T15:00:27.771Z,9.68
2023-02-03T15:03:14.077Z,9.75
2023-02-03T15:05:42.839Z,10.80
2023-02-03T15:08:33.908Z,11.95
2023-02-03T15:11:16.456Z,12.70
2023-02-03T15:13:43.425Z,12.32
2023-02-03T15:16:16.320Z,13.25
2023-02-03T15:18:43.227Z,12.73
2023-02-03T15:21:19.877Z,14.68
2023-02-03T15:26:24.321Z,18.02
2023-02-03T15:28:59.875Z,16.45
2023-02-03T15:31:37.719Z,17.33
2023-02-03T15:34:27.396Z,13.40
2023-02-03T15:36:59.006Z,13.32
2023-02-03T15:39:28.823Z,14.60
2023-02-03T15:41:58.055Z,14.98
2023-02-03T15:44:34.485Z,15.32
2023-02-03T15:47:05.958Z,14.98
2023-02-03T15:49:41.168Z,15.90
2023-02-03T15:52:15.032Z,14.35
2023-02-03T15:54:47.027Z,13.48
2023-02-03T15:57:28.377Z,16.48
2023-02-03T16:00:08.875Z,18.98
2023-02-03T16:02:43.056Z,19.23
2023-02-03T16:05:28.007Z,19.60
2023-02-03T16:07:55.085Z,20.15
2023-02-03T16:10:34.293Z,18.38
2023-02-03T16:13:21.321Z,19.05
2023-02-03T16:16:11.100Z,16.20
2023-02-03T16:18:38.167Z,15.82
2023-02-03T16:21:05.925Z,18.02
2023-02-03T16:23:33.405Z,16.45
2023-02-03T16:26:18.824Z,16.60
2023-02-03T16:29:23.175Z,16.83
2023-02-03T16:32:10.579Z,18.60
2023-02-03T16:34:56.178Z,20.15
2023-02-03T16:37:53.850Z,22.80
2023-02-03T16:43:34.354Z,21.58
2023-02-03T16:46:20.872Z,20.77
2023-02-03T16:49:07.918Z,20.50
2023-02-03T16:54:13.437Z,22.52
2023-02-03T16:56:41.373Z,19.70
2023-02-03T16:59:08.729Z,19.70
2023-02-03T17:01:36.227Z,20.33
2023-02-03T17:04:03.532Z,14.98
2023-02-03T17:06:37.006Z,11.07
2023-02-03T17:09:04.148Z,9.95
2023-02-03T17:11:31.905Z,8.00
2023-02-03T17:13:59.575Z,7.60
2023-02-03T17:16:28.773Z,7.43
2023-02-03T17:18:55.613Z,6.30
2023-02-03T17:21:26.019Z,6.20
2023-02-03T17:23:53.896Z,6.55
2023-02-03T17:26:21.221Z,6.32
2023-02-03T17:28:48.421Z,6.53
2023-02-03T17:31:18.455Z,7.28
2023-02-03T17:33:45.501Z,8.27
2023-02-03T17:36:17.547Z,7.85
2023-02-03T17:55:26.294Z,6.47
2023-02-03T17:57:53.976Z,5.78
2023-02-03T18:00:21.237Z,6.00
2023-02-03T18:02:51.953Z,7.15
2023-02-03T18:05:19.754Z,8.40
2023-02-03T18:10:16.055Z,9.38
2023-02-03T18:12:43.108Z,10.77
2023-02-03T18:15:11.518Z,11.75
2023-02-03T18:17:38.760Z,11.60
2023-02-03T18:20:06.966Z,12.20
2023-02-03T18:22:34.904Z,12.05
2023-02-03T18:25:02.748Z,12.25
2023-02-03T18:27:29.826Z,13.45
2023-02-03T18:29:58.048Z,15.23
2023-02-03T18:32:25.355Z,15.10
2023-02-03T18:34:52.371Z,14.07
2023-02-03T18:37:26.685Z,12.02
2023-02-03T18:39:53.696Z,11.15
2023-02-03T18:42:20.990Z,10.93
2023-02-03T18:44:48.024Z,10.38
2023-02-03T18:47:15.023Z,8.98
2023-02-03T18:49:45.936Z,8.98
2023-02-03T18:52:12.949Z,8.30
2023-02-03T18:54:40.238Z,8.57
2023-02-03T18:57:07.826Z,7.80
2023-02-03T18:59:36.029Z,7.80
2023-02-03T19:02:03.015Z,7.13
2023-02-03T19:04:30.381Z,6.00
2023-02-03T19:06:57.415Z,6.10
2023-02-03T19:09:25.432Z,6.13
2023-02-03T19:11:52.485Z,7.28
2023-02-03T19:14:20.803Z,9.20
2023-02-03T19:16:50.505Z,9.88
2023-02-03T19:19:18.012Z,9.85
2023-02-03T19:21:46.505Z,11.25
2023-02-03T19:24:15.896Z,11.88
2023-02-03T19:26:43.338Z,11.40
2023-02-03T19:29:11.017Z,11.02
2023-02-03T19:31:38.182Z,9.73
2023-02-03T19:34:06.119Z,9.20
2023-02-03T19:36:53.116Z,7.82
2023-02-03T19:39:21.844Z,8.00
2023-02-03T19:41:48.923Z,7.32
2023-02-03T19:44:15.943Z,7.22
2023-02-03T19:46:43.687Z,7.03
2023-02-03T19:49:13.478Z,7.90
2023-02-03T19:51:40.953Z,6.50
2023-02-03T19:54:10.683Z,6.25
2023-02-03T19:56:37.876Z,5.68
2023-02-03T19:59:05.635Z,5.78
2023-02-03T20:01:34.389Z,6.53
2023-02-03T20:04:01.603Z,6.07
2023-02-03T20:06:28.989Z,6.10
2023-02-03T20:08:57.477Z,8.05
2023-02-03T20:11:24.517Z,5.65
2023-02-03T20:13:52.132Z,4.80
2023-02-03T20:16:19.336Z,5.63
2023-02-03T20:18:46.584Z,4.20
2023-02-03T20:21:16.369Z,4.45
2023-02-03T20:23:43.311Z,4.45
2023-02-03T20:26:10.331Z,3.25
2023-02-03T20:28:40.848Z,3.03
2023-02-03T20:31:08.067Z,3.05
2023-02-03T20:33:35.545Z,2.83
2023-02-03T20:36:02.414Z,2.72
2023-02-03T20:38:29.334Z,3.97
2023-02-03T20:40:56.185Z,4.00
2023-02-03T20:43:30.423Z,4.35
2023-02-03T20:45:57.984Z,4.18
2023-02-03T20:48:26.201Z,4.60
2023-02-03T20:50:53.564Z,4.70
2023-02-03T20:53:23.125Z,5.25
2023-02-03T20:55:50.699Z,5.65
2023-02-03T20:58:21.957Z,4.88
2023-02-03T21:00:50.258Z,4.80
2023-02-03T21:03:38.457Z,4.60
2023-02-03T21:06:18.791Z,4.38
2023-02-03T21:08:47.140Z,4.60
2023-02-03T21:11:19.583Z,4.25
2023-02-03T21:13:48.117Z,4.28
2023-02-03T21:16:23.114Z,4.53
2023-02-03T21:18:55.277Z,3.65
2023-02-03T21:21:35.144Z,3.45
2023-02-03T21:24:15.901Z,3.50
2023-02-03T21:26:42.755Z,3.80
2023-02-03T21:29:22.460Z,4.20
2023-02-03T21:31:49.402Z,3.72
2023-02-03T21:34:27.153Z,4.40
2023-02-03T21:36:54.514Z,8.00
2023-02-03T21:39:30.653Z,3.70
2023-02-03T21:42:03.031Z,5.88
2023-02-03T21:44:36.284Z,5.70
2023-02-03T21:47:19.435Z,5.88
2023-02-03T21:49:46.264Z,5.72
2023-02-03T21:52:16.452Z,4.65
2023-02-03T21:54:44.449Z,4.55
2023-02-03T21:57:15.903Z,3.42
2023-02-03T21:59:46.735Z,3.80
2023-02-03T22:02:58.890Z,5.70
2023-02-03T22:05:25.762Z,5.00
2023-02-03T22:07:52.614Z,4.25
2023-02-03T22:10:19.481Z,3.90
2023-02-03T22:12:46.308Z,2.67
2023-02-03T22:15:31.699Z,2.80
2023-02-03T22:17:58.513Z,2.85
2023-02-03T22:20:25.342Z,4.28
2023-02-03T22:22:52.294Z,4.50
2023-02-03T22:25:19.249Z,3.45
2023-02-03T22:27:46.099Z,2.67
2023-02-03T22:30:18.242Z,2.38
2023-02-03T22:32:45.108Z,1.90
2023-02-03T22:35:12.565Z,2.80
2023-02-03T22:37:39.481Z,3.45
2023-02-03T22:40:06.844Z,2.95
2023-02-03T22:42:33.856Z,3.50
2023-02-03T22:45:00.666Z,3.58
2023-02-03T22:47:27.632Z,3.72
2023-02-03T22:49:54.435Z,3.33
2023-02-03T22:52:21.277Z,4.00
2023-02-03T22:55:06.455Z,4.07
2023-02-03T22:57:33.427Z,4.90
2023-02-03T23:00:00.234Z,5.50
2023-02-03T23:02:27.156Z,7.13
2023-02-03T23:04:54.060Z,6.63
2023-02-03T23:07:20.905Z,7.13
2023-02-03T23:09:47.753Z,6.97
2023-02-03T23:12:14.612Z,7.05
2023-02-03T23:14:41.535Z,7.15
2023-02-03T23:17:08.378Z,5.97
2023-02-03T23:19:35.490Z,6.30
2023-02-03T23:22:02.308Z,6.38
2023-02-03T23:24:29.148Z,6.38
2023-02-03T23:26:56.069Z,6.25
2023-02-03T23:29:22.988Z,5.88
2023-02-03T23:31:49.924Z,6.18
2023-02-03T23:34:35.469Z,6.65
2023-02-03T23:37:02.618Z,6.63
2023-02-03T23:39:30.430Z,6.00
2023-02-03T23:41:58.240Z,5.80
2023-02-03T23:44:25.164Z,5.55
2023-02-03T23:46:52.030Z,5.55
2023-02-03T23:49:18.905Z,5.75
2023-02-03T23:51:45.705Z,5.60
2023-02-03T23:54:12.654Z,5.07
2023-02-03T23:56:39.534Z,6.13
2023-02-03T23:59:06.318Z,5.82
